GMAD

Details ICAO GMAD
Name Agadir AL MASSIRA
Region Morocco
Timezone Africa/Casablanca (UTC+0.0)
Plans Departing 101
Arriving 148
Stats Elevation 250 ft / 76 m (AMSL)
Location 30.322623° -9.411528°
Runways 1
Magnetic Variation 2.481° W
Sunrise 2017-12-18 07:29:55 UTC / 2017-12-18 07:29:55 Local
Sunset 2017-12-18 17:41:20 UTC / 2017-12-18 17:41:20 Local
Advertisement - Login to hide

Runways

ID Width Length Bearing (true) Bearing (mag) Surface Threshold Offset Overrun Length
10 148 ft / 45 m 10,509 ft / 3,203 m 91.58° 94.06° Asphalt 0 ft / 0 m 0 ft / 0 m
28 148 ft / 45 m 10,509 ft / 3,203 m 271.60° 274.08° Asphalt 0 ft / 0 m 0 ft / 0 m

Approach Navaids

Runway Type Ident Frequency Range Bearing (true) Bearing (mag) Slope Elevation
28 Localiser ADA 110.30 MHz 18 nm / 33 km 273.07° 275.55° - 250 ft / 76 m (AMSL)
28 Glidescope ADA 110.30 MHz 10 nm / 19 km 271.59° 274.07° 3.00° 250 ft / 76 m (AMSL)

Map

Weather


0- 5 10 15 20 25 30 35+ Temperature / ° C

Clouds and Precipitation
Forecast for 2017-12-18 06:00 UTC. Updated 2 hours ago

Ground ~20,000 ft ~40,000 ft Winds

METAR

GMAD 180700Z 07008KT CAVOK 13/10 Q1023 NOSIG

TAF

TAF GMAD 180500Z 1806/1912 08006KT CAVOK BECMG 1812/1814 26010KT

Frequencies

Tower 119.50 MHz AGADIR TWR
Approach 120.90 MHz AGADIR APP
Warning: Do not use this data for real-world aviation or navigation. No guarantee of current accuracy is given.